Time;durP1;ratioP1;P1;durP2;ratioP2;P2;SDS_P1;SDS_P2;PMS_P1;PMS_P2;Temp;Humidity;BMP_temperature;BMP_pressure;BME280_temperature;BME280_humidity;BME280_pressure;Samples;Min_cycle;Max_cycle;Signal;HPM_P1;HPM_P2
2023/12/02 00:00:55;;;;;;;;;;;19.40;38.80;;;;;;5113130;28;19924;-58
2023/12/02 00:03:22;;;;;;;;;;;19.40;38.80;;;;;;5097012;28;19923;-59
2023/12/02 00:05:50;;;;;;;;;;;19.40;38.70;;;;;;5111459;28;19924;-59
2023/12/02 00:08:18;;;;;;;;;;;19.50;38.80;;;;;;5100325;28;19977;-57
2023/12/02 00:10:45;;;;;;;;;;;19.40;38.70;;;;;;5103288;28;19923;-59
2023/12/02 00:13:12;;;;;;;;;;;19.50;38.80;;;;;;5112783;28;19923;-59
2023/12/02 00:15:39;;;;;;;;;;;19.50;38.80;;;;;;5113210;28;19924;-59
2023/12/02 00:18:05;;;;;;;;;;;19.40;38.70;;;;;;5102617;28;20307;-59
2023/12/02 00:20:32;;;;;;;;;;;19.50;38.70;;;;;;5101115;28;19924;-58
2023/12/02 00:23:00;;;;;;;;;;;19.40;38.70;;;;;;5109486;28;19924;-58
2023/12/02 00:25:27;;;;;;;;;;;19.50;38.80;;;;;;5111443;28;19981;-58
2023/12/02 00:27:54;;;;;;;;;;;19.40;38.60;;;;;;5110674;28;20094;-59
2023/12/02 00:30:21;;;;;;;;;;;19.40;38.70;;;;;;5112925;28;19923;-57
2023/12/02 00:32:47;;;;;;;;;;;19.40;38.60;;;;;;5112992;28;20186;-58
2023/12/02 00:35:14;;;;;;;;;;;19.40;38.60;;;;;;5094605;28;19973;-58
2023/12/02 00:37:41;;;;;;;;;;;19.40;38.60;;;;;;5099282;28;19924;-57
2023/12/02 00:40:10;;;;;;;;;;;19.40;38.60;;;;;;5092316;28;19927;-58
2023/12/02 00:42:37;;;;;;;;;;;19.40;38.60;;;;;;5094297;28;19923;-58
2023/12/02 00:45:05;;;;;;;;;;;19.40;38.60;;;;;;5102357;28;19919;-58
2023/12/02 00:47:31;;;;;;;;;;;19.40;38.60;;;;;;5095026;28;20057;-58
2023/12/02 00:49:58;;;;;;;;;;;19.40;38.60;;;;;;5103311;28;19928;-58
2023/12/02 00:52:25;;;;;;;;;;;19.40;38.60;;;;;;5094736;28;19923;-58
2023/12/02 00:54:51;;;;;;;;;;;19.40;38.60;;;;;;5094483;28;19931;-58
2023/12/02 00:57:20;;;;;;;;;;;19.40;38.50;;;;;;5108040;28;19953;-58
2023/12/02 00:59:47;;;;;;;;;;;19.40;38.60;;;;;;5094722;28;19924;-58
2023/12/02 01:02:13;;;;;;;;;;;19.40;38.60;;;;;;5089887;28;19931;-58
2023/12/02 01:04:40;;;;;;;;;;;19.40;38.50;;;;;;5102436;28;19931;-61
2023/12/02 01:07:07;;;;;;;;;;;19.40;39.10;;;;;;5102180;28;19924;-59
2023/12/02 01:09:34;;;;;;;;;;;19.40;38.50;;;;;;5102723;28;19924;-57
2023/12/02 01:12:00;;;;;;;;;;;19.40;38.50;;;;;;5090259;28;19923;-58
2023/12/02 01:14:28;;;;;;;;;;;19.40;38.50;;;;;;5112300;28;19931;-58
2023/12/02 01:16:55;;;;;;;;;;;19.40;38.50;;;;;;5112154;28;19930;-59
2023/12/02 01:19:22;;;;;;;;;;;19.40;38.50;;;;;;5100578;28;19981;-60
2023/12/02 01:21:49;;;;;;;;;;;19.40;38.50;;;;;;5111738;28;19924;-58
2023/12/02 01:24:16;;;;;;;;;;;19.40;38.50;;;;;;5094108;28;19928;-58
2023/12/02 01:26:43;;;;;;;;;;;19.40;38.50;;;;;;5110927;28;19932;-58
2023/12/02 01:29:10;;;;;;;;;;;19.40;38.50;;;;;;5093156;28;19924;-58
2023/12/02 01:31:38;;;;;;;;;;;19.40;38.50;;;;;;5106130;28;19924;-58
2023/12/02 01:34:05;;;;;;;;;;;19.40;38.50;;;;;;5093593;28;19924;-58
2023/12/02 01:36:32;;;;;;;;;;;19.40;38.40;;;;;;5099438;28;19924;-56
2023/12/02 01:38:59;;;;;;;;;;;19.40;38.40;;;;;;5113278;28;19924;-56
2023/12/02 01:41:26;;;;;;;;;;;19.40;38.50;;;;;;5086299;28;19938;-58
2023/12/02 01:43:53;;;;;;;;;;;19.40;38.40;;;;;;5097556;28;19930;-58
2023/12/02 01:46:20;;;;;;;;;;;19.40;38.40;;;;;;5096179;28;19928;-58
2023/12/02 01:48:48;;;;;;;;;;;19.40;38.50;;;;;;5096912;28;19967;-59
2023/12/02 01:51:16;;;;;;;;;;;19.40;38.40;;;;;;5097281;28;19937;-58
2023/12/02 01:53:43;;;;;;;;;;;19.40;38.40;;;;;;5097724;28;19930;-58
2023/12/02 01:56:10;;;;;;;;;;;19.40;38.40;;;;;;5098629;28;19931;-58
2023/12/02 01:58:37;;;;;;;;;;;19.40;38.40;;;;;;5101845;28;19924;-59
2023/12/02 02:01:04;;;;;;;;;;;19.30;38.40;;;;;;5105689;27;19924;-58
2023/12/02 02:03:31;;;;;;;;;;;19.30;38.30;;;;;;5116054;28;19927;-58
2023/12/02 02:05:59;;;;;;;;;;;19.30;38.30;;;;;;5106135;28;19985;-57
2023/12/02 02:08:25;;;;;;;;;;;19.30;38.30;;;;;;5105889;28;20130;-57
2023/12/02 02:10:55;;;;;;;;;;;19.30;38.30;;;;;;5097469;28;19923;-57
2023/12/02 02:13:22;;;;;;;;;;;19.30;38.30;;;;;;5115679;28;19945;-57
2023/12/02 02:15:48;;;;;;;;;;;19.30;38.30;;;;;;5115621;28;19992;-58
2023/12/02 02:18:15;;;;;;;;;;;19.30;38.20;;;;;;5097573;28;19924;-58
2023/12/02 02:20:42;;;;;;;;;;;19.30;38.20;;;;;;5112321;27;19923;-58
2023/12/02 02:23:10;;;;;;;;;;;19.30;38.20;;;;;;5105842;28;20507;-58
2023/12/02 02:25:37;;;;;;;;;;;19.30;38.20;;;;;;5114952;28;19981;-57
2023/12/02 02:28:04;;;;;;;;;;;19.30;38.20;;;;;;5106067;28;19923;-58
2023/12/02 02:30:30;;;;;;;;;;;19.30;38.10;;;;;;5096178;28;19927;-58
2023/12/02 02:32:57;;;;;;;;;;;19.30;38.10;;;;;;5103625;28;19924;-59
2023/12/02 02:35:24;;;;;;;;;;;19.30;38.10;;;;;;5097841;28;19924;-58
2023/12/02 02:37:50;;;;;;;;;;;19.30;38.10;;;;;;5089455;28;19950;-58
2023/12/02 02:40:19;;;;;;;;;;;19.30;38.00;;;;;;5096753;28;19927;-58
2023/12/02 02:42:45;;;;;;;;;;;19.30;38.00;;;;;;5102115;28;19931;-58
2023/12/02 02:45:12;;;;;;;;;;;19.30;38.00;;;;;;5096267;28;19924;-58
2023/12/02 02:47:39;;;;;;;;;;;19.30;38.00;;;;;;5096216;28;19927;-58
2023/12/02 02:50:07;;;;;;;;;;;19.30;38.00;;;;;;5114189;28;19977;-58
2023/12/02 02:52:34;;;;;;;;;;;19.30;38.00;;;;;;5096025;28;19951;-59
2023/12/02 02:55:01;;;;;;;;;;;19.30;38.00;;;;;;5103413;28;19923;-58
2023/12/02 02:57:29;;;;;;;;;;;19.30;38.00;;;;;;5095495;28;19969;-58
2023/12/02 02:59:56;;;;;;;;;;;19.30;38.00;;;;;;5111301;28;19924;-59
2023/12/02 03:02:23;;;;;;;;;;;19.30;38.00;;;;;;5119357;27;19931;-58
2023/12/02 03:04:50;;;;;;;;;;;19.30;38.00;;;;;;5095794;28;20022;-58
2023/12/02 03:07:17;;;;;;;;;;;19.30;38.00;;;;;;5112070;28;19924;-58
2023/12/02 03:09:43;;;;;;;;;;;19.30;38.00;;;;;;5108628;28;19924;-58
2023/12/02 03:12:11;;;;;;;;;;;19.30;38.00;;;;;;5096261;28;19928;-58
2023/12/02 03:14:39;;;;;;;;;;;19.30;37.90;;;;;;5096075;28;19924;-58
2023/12/02 03:17:05;;;;;;;;;;;19.30;37.90;;;;;;5104594;28;19973;-59
2023/12/02 03:19:32;;;;;;;;;;;19.20;37.90;;;;;;5114229;28;19924;-58
2023/12/02 03:21:59;;;;;;;;;;;19.30;37.90;;;;;;5121378;27;19927;-58
2023/12/02 03:24:26;;;;;;;;;;;19.20;37.90;;;;;;5095414;28;19944;-59
2023/12/02 03:26:53;;;;;;;;;;;19.20;37.90;;;;;;5101908;28;19953;-58
2023/12/02 03:29:19;;;;;;;;;;;19.20;37.90;;;;;;5113806;28;19932;-59
2023/12/02 03:31:48;;;;;;;;;;;19.20;37.90;;;;;;5103939;28;19924;-58
2023/12/02 03:34:14;;;;;;;;;;;19.30;37.90;;;;;;5104066;28;19927;-58
2023/12/02 03:36:41;;;;;;;;;;;19.30;37.90;;;;;;5095958;28;19986;-58
2023/12/02 03:39:12;;;;;;;;;;;19.30;37.90;;;;;;5087780;28;19931;-59
2023/12/02 03:41:39;;;;;;;;;;;19.20;37.90;;;;;;5118484;27;19924;-58
2023/12/02 03:44:06;;;;;;;;;;;19.30;37.90;;;;;;5121680;27;19934;-58
2023/12/02 03:46:32;;;;;;;;;;;19.20;37.90;;;;;;5113789;28;19924;-58
2023/12/02 03:49:01;;;;;;;;;;;19.30;38.00;;;;;;5095805;28;19923;-58
2023/12/02 03:51:28;;;;;;;;;;;19.20;38.00;;;;;;5113629;28;19927;-58
2023/12/02 03:53:54;;;;;;;;;;;19.30;38.00;;;;;;5110836;28;19962;-58
2023/12/02 03:56:21;;;;;;;;;;;19.30;38.00;;;;;;5113027;28;19977;-58
2023/12/02 03:58:48;;;;;;;;;;;19.30;38.00;;;;;;5095037;28;19923;-58
2023/12/02 04:01:15;;;;;;;;;;;19.30;38.00;;;;;;5105285;28;19923;-58
2023/12/02 04:03:42;;;;;;;;;;;19.30;38.00;;;;;;5099358;28;19923;-58
2023/12/02 04:06:10;;;;;;;;;;;19.20;37.90;;;;;;5104027;28;19976;-59
2023/12/02 04:08:37;;;;;;;;;;;19.30;38.00;;;;;;5093760;28;19924;-61
2023/12/02 04:11:04;;;;;;;;;;;19.30;38.00;;;;;;5117403;27;19924;-58
2023/12/02 04:13:31;;;;;;;;;;;19.20;38.00;;;;;;5099558;27;19984;-58
2023/12/02 04:15:57;;;;;;;;;;;19.30;38.00;;;;;;5101620;28;19923;-58
2023/12/02 04:18:24;;;;;;;;;;;19.30;38.00;;;;;;5101167;27;20052;-58
2023/12/02 04:20:51;;;;;;;;;;;19.30;38.00;;;;;;5097107;28;19932;-59
2023/12/02 04:23:19;;;;;;;;;;;19.20;38.00;;;;;;5095314;28;19931;-58
2023/12/02 04:25:46;;;;;;;;;;;19.30;38.00;;;;;;5112987;28;19924;-58
2023/12/02 04:28:12;;;;;;;;;;;19.30;38.00;;;;;;5095107;28;19928;-59
2023/12/02 04:30:39;;;;;;;;;;;19.30;38.00;;;;;;5090867;28;19924;-59
2023/12/02 04:33:06;;;;;;;;;;;19.30;38.00;;;;;;5113099;28;19924;-59
2023/12/02 04:35:34;;;;;;;;;;;19.20;38.00;;;;;;5112453;28;19984;-58
2023/12/02 04:38:04;;;;;;;;;;;19.20;38.00;;;;;;5094303;28;19935;-57
2023/12/02 04:40:32;;;;;;;;;;;19.20;38.00;;;;;;5094955;28;19932;-59
2023/12/02 04:42:59;;;;;;;;;;;19.30;38.00;;;;;;5094945;28;19988;-58
2023/12/02 04:45:26;;;;;;;;;;;19.20;38.00;;;;;;5106436;28;19932;-58
2023/12/02 04:47:53;;;;;;;;;;;19.20;38.00;;;;;;5101286;28;19931;-59
2023/12/02 04:50:20;;;;;;;;;;;19.30;38.00;;;;;;5094329;28;19999;-59
2023/12/02 04:52:46;;;;;;;;;;;19.30;38.00;;;;;;5112264;28;19923;-58
2023/12/02 04:55:13;;;;;;;;;;;19.30;38.00;;;;;;5104037;28;19928;-59
2023/12/02 04:57:41;;;;;;;;;;;19.30;38.00;;;;;;5112861;28;19931;-58
2023/12/02 05:00:13;;;;;;;;;;;19.20;37.90;;;;;;5086194;28;19969;-58
2023/12/02 05:02:41;;;;;;;;;;;19.20;37.90;;;;;;5093698;28;19938;-59
2023/12/02 05:05:08;;;;;;;;;;;19.30;38.00;;;;;;5102325;28;19928;-60
2023/12/02 05:07:34;;;;;;;;;;;19.30;38.00;;;;;;5086542;28;19942;-58
2023/12/02 05:10:01;;;;;;;;;;;19.20;37.90;;;;;;5085035;28;19985;-59
2023/12/02 05:12:28;;;;;;;;;;;19.20;37.90;;;;;;5093807;28;19928;-58
2023/12/02 05:14:56;;;;;;;;;;;19.30;38.00;;;;;;5094289;28;19924;-59
2023/12/02 05:17:23;;;;;;;;;;;19.20;37.90;;;;;;5112785;28;19931;-58
2023/12/02 05:19:50;;;;;;;;;;;19.20;37.90;;;;;;5095621;28;20008;-59
2023/12/02 05:22:16;;;;;;;;;;;19.20;38.00;;;;;;5112502;28;19972;-59
2023/12/02 05:24:43;;;;;;;;;;;19.20;37.90;;;;;;5095090;28;19928;-58
2023/12/02 05:27:10;;;;;;;;;;;19.20;37.90;;;;;;5112912;28;19924;-58
2023/12/02 05:29:37;;;;;;;;;;;19.20;37.90;;;;;;5094915;28;19923;-58
2023/12/02 05:32:06;;;;;;;;;;;19.20;37.90;;;;;;5094373;28;19931;-59
2023/12/02 05:34:33;;;;;;;;;;;19.20;37.90;;;;;;5088248;28;19931;-58
2023/12/02 05:36:59;;;;;;;;;;;19.20;37.80;;;;;;5111248;28;19923;-60
2023/12/02 05:39:26;;;;;;;;;;;19.20;37.90;;;;;;5093853;28;19923;-58
2023/12/02 05:41:53;;;;;;;;;;;19.20;37.80;;;;;;5094123;28;19931;-59
2023/12/02 05:44:20;;;;;;;;;;;19.20;37.80;;;;;;5093654;28;19930;-59
2023/12/02 05:46:46;;;;;;;;;;;19.20;37.90;;;;;;5101518;28;19973;-59
2023/12/02 05:49:14;;;;;;;;;;;19.20;37.80;;;;;;5093323;28;20182;-59
2023/12/02 05:51:41;;;;;;;;;;;19.20;37.80;;;;;;5092986;28;19992;-58
2023/12/02 05:54:08;;;;;;;;;;;19.20;37.80;;;;;;5098797;28;19928;-59
2023/12/02 05:56:35;;;;;;;;;;;19.20;37.80;;;;;;5107528;28;20358;-58
2023/12/02 05:59:02;;;;;;;;;;;19.20;37.80;;;;;;5102206;28;19934;-58
2023/12/02 06:01:28;;;;;;;;;;;19.20;37.80;;;;;;5088601;28;19924;-59
2023/12/02 06:03:55;;;;;;;;;;;19.20;37.80;;;;;;5092609;28;19973;-58
2023/12/02 06:06:23;;;;;;;;;;;19.20;37.80;;;;;;5096840;28;19932;-59
2023/12/02 06:08:50;;;;;;;;;;;19.20;37.80;;;;;;5092711;28;19928;-60
2023/12/02 06:11:17;;;;;;;;;;;19.20;37.80;;;;;;5090361;28;20033;-58
2023/12/02 06:13:43;;;;;;;;;;;19.20;37.80;;;;;;5092060;28;20323;-58
2023/12/02 06:16:11;;;;;;;;;;;19.20;37.80;;;;;;5111848;28;19931;-59
2023/12/02 06:18:38;;;;;;;;;;;19.20;37.80;;;;;;5112463;28;19969;-58
2023/12/02 06:21:05;;;;;;;;;;;19.20;37.80;;;;;;5102472;28;19959;-59
2023/12/02 06:23:33;;;;;;;;;;;19.20;37.80;;;;;;5108088;28;19934;-58
2023/12/02 06:26:00;;;;;;;;;;;19.20;37.80;;;;;;5104702;28;19981;-58
2023/12/02 06:28:27;;;;;;;;;;;19.20;37.80;;;;;;5102085;28;20014;-58
2023/12/02 06:30:54;;;;;;;;;;;19.20;37.80;;;;;;5097630;28;19927;-58
2023/12/02 06:33:20;;;;;;;;;;;19.20;37.80;;;;;;5091817;28;19924;-58
2023/12/02 06:35:47;;;;;;;;;;;19.20;37.80;;;;;;5095190;28;19924;-58
2023/12/02 06:38:14;;;;;;;;;;;19.20;37.80;;;;;;5096757;28;19930;-59
2023/12/02 06:40:42;;;;;;;;;;;19.20;37.80;;;;;;5098257;28;19928;-58
2023/12/02 06:43:10;;;;;;;;;;;19.20;37.80;;;;;;5097262;28;19932;-58
2023/12/02 06:45:37;;;;;;;;;;;19.20;37.80;;;;;;5105127;28;19924;-58
2023/12/02 06:48:04;;;;;;;;;;;19.20;37.80;;;;;;5114645;28;19931;-58
2023/12/02 06:50:31;;;;;;;;;;;19.20;37.80;;;;;;5113158;28;19925;-59
2023/12/02 06:52:58;;;;;;;;;;;19.20;37.80;;;;;;5097184;28;19924;-60
2023/12/02 06:55:27;;;;;;;;;;;19.20;37.80;;;;;;5113748;28;19923;-59
2023/12/02 06:57:55;;;;;;;;;;;19.20;37.70;;;;;;5117444;27;19927;-58
2023/12/02 07:00:22;;;;;;;;;;;19.20;37.70;;;;;;5107866;28;19927;-59
2023/12/02 07:02:48;;;;;;;;;;;19.20;37.70;;;;;;5099739;28;19924;-59
2023/12/02 07:05:15;;;;;;;;;;;19.20;37.70;;;;;;5096396;28;19977;-59
2023/12/02 07:07:42;;;;;;;;;;;19.20;37.60;;;;;;5114735;28;19924;-58
2023/12/02 07:10:10;;;;;;;;;;;19.20;37.60;;;;;;5087752;28;19985;-59
2023/12/02 07:12:37;;;;;;;;;;;19.20;37.60;;;;;;5094264;28;20020;-58
2023/12/02 07:15:06;;;;;;;;;;;19.20;37.60;;;;;;5093196;28;19924;-59
2023/12/02 07:17:33;;;;;;;;;;;19.20;37.60;;;;;;5095479;28;20377;-59
2023/12/02 07:20:00;;;;;;;;;;;19.20;37.60;;;;;;5094647;28;19936;-57
2023/12/02 07:22:26;;;;;;;;;;;19.20;37.60;;;;;;5113790;28;19924;-60
2023/12/02 07:24:53;;;;;;;;;;;19.20;37.50;;;;;;5095613;28;20022;-60
2023/12/02 07:27:20;;;;;;;;;;;19.20;37.50;;;;;;5095159;28;19932;-57
2023/12/02 07:29:47;;;;;;;;;;;19.20;37.50;;;;;;5092266;28;19927;-58
2023/12/02 07:32:15;;;;;;;;;;;19.20;37.40;;;;;;5102829;28;19928;-57
2023/12/02 07:34:41;;;;;;;;;;;19.20;37.40;;;;;;5093441;28;19924;-57
2023/12/02 07:37:08;;;;;;;;;;;19.20;37.40;;;;;;5111319;28;19924;-58
2023/12/02 07:39:36;;;;;;;;;;;19.20;37.40;;;;;;5113232;28;19924;-57
2023/12/02 07:42:02;;;;;;;;;;;19.20;37.40;;;;;;5102903;28;19949;-56
2023/12/02 07:44:29;;;;;;;;;;;19.10;37.30;;;;;;5094759;28;19931;-57
2023/12/02 07:46:56;;;;;;;;;;;19.20;37.40;;;;;;5096712;28;19923;-57
2023/12/02 07:49:24;;;;;;;;;;;19.20;37.50;;;;;;5111258;28;19924;-59
2023/12/02 07:51:51;;;;;;;;;;;19.20;37.40;;;;;;5111650;28;19980;-59
2023/12/02 07:54:18;;;;;;;;;;;19.20;37.40;;;;;;5103446;28;19931;-58
2023/12/02 07:56:44;;;;;;;;;;;19.20;37.40;;;;;;5094718;28;19935;-57
2023/12/02 07:59:11;;;;;;;;;;;19.20;37.40;;;;;;5095107;28;19924;-59
2023/12/02 08:01:38;;;;;;;;;;;19.10;37.30;;;;;;5094509;28;20333;-57
2023/12/02 08:04:05;;;;;;;;;;;19.20;37.40;;;;;;5095004;28;19932;-57
2023/12/02 08:06:33;;;;;;;;;;;19.10;37.30;;;;;;5094012;28;19928;-59
2023/12/02 08:08:59;;;;;;;;;;;19.10;37.20;;;;;;5094913;28;19976;-58
2023/12/02 08:11:26;;;;;;;;;;;19.10;37.20;;;;;;5094389;28;19924;-58
2023/12/02 08:13:53;;;;;;;;;;;19.10;37.20;;;;;;5107196;28;20085;-59
2023/12/02 08:16:20;;;;;;;;;;;19.20;37.30;;;;;;5096394;28;19924;-58
2023/12/02 08:18:47;;;;;;;;;;;19.10;37.20;;;;;;5094361;28;19924;-57
2023/12/02 08:21:13;;;;;;;;;;;19.10;37.20;;;;;;5089698;28;19938;-60
2023/12/02 08:23:41;;;;;;;;;;;19.10;37.20;;;;;;5087423;28;19991;-58
2023/12/02 08:26:08;;;;;;;;;;;19.10;37.20;;;;;;5111577;28;19931;-57
2023/12/02 08:28:35;;;;;;;;;;;19.10;37.20;;;;;;5094396;28;19928;-58
2023/12/02 08:31:02;;;;;;;;;;;19.10;37.20;;;;;;5088203;28;19935;-58
2023/12/02 08:33:28;;;;;;;;;;;19.10;37.30;;;;;;5093998;28;19930;-58
2023/12/02 08:35:55;;;;;;;;;;;19.10;37.30;;;;;;5093626;28;19928;-58
2023/12/02 08:38:22;;;;;;;;;;;19.10;37.30;;;;;;5098648;28;20220;-58
2023/12/02 08:40:50;;;;;;;;;;;19.10;37.30;;;;;;5094110;28;19950;-57
2023/12/02 08:43:17;;;;;;;;;;;19.10;37.30;;;;;;5097476;28;19924;-58
2023/12/02 08:45:44;;;;;;;;;;;19.10;37.30;;;;;;5086483;28;19963;-60
2023/12/02 08:48:10;;;;;;;;;;;19.10;37.30;;;;;;5112165;28;19924;-58
2023/12/02 08:50:37;;;;;;;;;;;19.10;37.30;;;;;;5094093;28;19931;-58
2023/12/02 08:53:04;;;;;;;;;;;19.10;37.30;;;;;;5109583;28;19945;-59
2023/12/02 08:55:31;;;;;;;;;;;19.10;37.30;;;;;;5112269;28;19969;-58
2023/12/02 08:57:59;;;;;;;;;;;19.10;37.30;;;;;;5093948;28;19932;-57
2023/12/02 09:00:25;;;;;;;;;;;19.10;37.30;;;;;;5112562;28;19932;-57
2023/12/02 09:02:52;;;;;;;;;;;19.10;37.30;;;;;;5094270;28;19924;-58
2023/12/02 09:05:19;;;;;;;;;;;19.10;37.30;;;;;;5093045;28;19931;-61
2023/12/02 09:07:46;;;;;;;;;;;19.10;37.30;;;;;;5109133;28;19931;-58
2023/12/02 09:10:13;;;;;;;;;;;19.10;37.30;;;;;;5093341;28;19924;-57
2023/12/02 09:12:39;;;;;;;;;;;19.10;37.30;;;;;;5112525;28;19946;-58
2023/12/02 09:15:28;;;;;;;;;;;19.10;37.40;;;;;;5112149;28;19936;-59
2023/12/02 09:18:08;;;;;;;;;;;19.10;37.30;;;;;;5105061;28;19924;-58
2023/12/02 09:20:36;;;;;;;;;;;19.10;37.40;;;;;;5091143;28;19924;-59
2023/12/02 09:23:03;;;;;;;;;;;19.10;37.40;;;;;;5111448;28;19959;-58
2023/12/02 09:25:35;;;;;;;;;;;19.10;37.30;;;;;;5092478;28;19924;-56
2023/12/02 09:28:11;;;;;;;;;;;19.10;37.40;;;;;;5109803;28;19932;-57
2023/12/02 09:30:41;;;;;;;;;;;19.10;37.40;;;;;;5106887;28;19931;-55
2023/12/02 09:33:07;;;;;;;;;;;19.10;37.40;;;;;;5112419;28;19981;-57
2023/12/02 09:35:34;;;;;;;;;;;19.10;38.00;;;;;;5102152;28;20018;-57
2023/12/02 09:38:01;;;;;;;;;;;19.10;37.40;;;;;;5102348;28;19963;-57
2023/12/02 09:40:29;;;;;;;;;;;19.20;37.50;;;;;;5094148;28;19928;-56
2023/12/02 09:42:56;;;;;;;;;;;19.10;37.50;;;;;;5093677;28;19977;-55
2023/12/02 09:45:23;;;;;;;;;;;19.10;37.50;;;;;;5108681;28;19969;-58
2023/12/02 09:47:53;;;;;;;;;;;19.10;37.50;;;;;;5099652;28;19966;-57
2023/12/02 09:50:20;;;;;;;;;;;19.10;38.10;;;;;;5092934;28;19924;-53
2023/12/02 09:52:48;;;;;;;;;;;19.10;37.60;;;;;;5093508;28;19923;-58
2023/12/02 09:55:16;;;;;;;;;;;19.10;37.50;;;;;;5093225;28;19924;-56
2023/12/02 09:57:47;;;;;;;;;;;19.10;37.60;;;;;;5095046;28;19924;-55
2023/12/02 10:00:19;;;;;;;;;;;19.10;37.60;;;;;;5100215;28;20027;-57
2023/12/02 10:02:51;;;;;;;;;;;19.20;37.70;;;;;;5112603;27;19931;-58
2023/12/02 10:05:19;;;;;;;;;;;19.20;37.70;;;;;;5101619;28;19931;-57
2023/12/02 10:07:52;;;;;;;;;;;19.20;37.80;;;;;;5109697;27;20034;-58
2023/12/02 10:10:22;;;;;;;;;;;19.20;37.70;;;;;;5105042;28;19924;-57
2023/12/02 10:12:51;;;;;;;;;;;19.10;37.70;;;;;;5092015;28;19928;-56
2023/12/02 10:15:18;;;;;;;;;;;19.20;37.80;;;;;;5109513;28;19923;-55
2023/12/02 10:17:48;;;;;;;;;;;19.20;37.80;;;;;;5095077;27;19965;-55
2023/12/02 10:20:15;;;;;;;;;;;19.10;37.70;;;;;;5105826;28;19968;-56
2023/12/02 10:22:45;;;;;;;;;;;19.20;37.80;;;;;;5095447;28;19930;-57
2023/12/02 10:25:14;;;;;;;;;;;19.20;37.80;;;;;;5110787;28;20003;-54
2023/12/02 10:27:41;;;;;;;;;;;19.20;37.80;;;;;;5102019;28;19924;-58
2023/12/02 10:30:10;;;;;;;;;;;19.20;37.90;;;;;;5080342;28;20289;-56
2023/12/02 10:32:41;;;;;;;;;;;19.20;37.90;;;;;;5114369;28;19935;-55
2023/12/02 10:35:10;;;;;;;;;;;19.20;37.90;;;;;;5111575;27;19924;-55
2023/12/02 10:37:37;;;;;;;;;;;19.20;37.90;;;;;;5095608;28;19924;-56
2023/12/02 10:40:06;;;;;;;;;;;19.20;37.90;;;;;;5105239;28;19984;-55
2023/12/02 10:42:34;;;;;;;;;;;19.20;38.50;;;;;;5095964;28;19970;-56
2023/12/02 10:45:04;;;;;;;;;;;19.20;37.90;;;;;;5113456;28;19923;-55
2023/12/02 10:47:30;;;;;;;;;;;19.20;37.90;;;;;;5098811;28;19931;-56
2023/12/02 10:49:57;;;;;;;;;;;19.20;37.90;;;;;;5096194;28;19987;-54
2023/12/02 10:52:24;;;;;;;;;;;19.20;38.50;;;;;;5095562;28;19930;-53
2023/12/02 10:54:51;;;;;;;;;;;19.20;38.00;;;;;;5095442;28;19928;-59
2023/12/02 10:57:19;;;;;;;;;;;19.20;37.50;;;;;;5092923;28;19950;-58
2023/12/02 10:59:48;;;;;;;;;;;19.10;30.30;;;;;;5085135;28;19977;-59
2023/12/02 11:02:20;;;;;;;;;;;18.90;28.70;;;;;;5111137;28;19924;-53
2023/12/02 11:04:47;;;;;;;;;;;18.70;28.90;;;;;;5091797;28;20098;-53
2023/12/02 11:07:15;;;;;;;;;;;18.50;30.80;;;;;;5095612;28;20018;-50
2023/12/02 11:09:44;;;;;;;;;;;18.30;31.60;;;;;;5113115;28;19932;-52
2023/12/02 11:12:12;;;;;;;;;;;18.30;32.60;;;;;;5094755;28;20030;-53
2023/12/02 11:14:42;;;;;;;;;;;18.20;33.10;;;;;;5095138;28;19928;-53
2023/12/02 11:17:11;;;;;;;;;;;18.20;33.50;;;;;;5098573;28;19924;-55
2023/12/02 11:19:45;;;;;;;;;;;18.30;34.00;;;;;;5114080;28;19961;-56
2023/12/02 11:22:16;;;;;;;;;;;18.30;34.30;;;;;;5090748;28;19928;-55
2023/12/02 11:24:47;;;;;;;;;;;18.30;34.50;;;;;;5114045;28;19925;-55
2023/12/02 11:27:16;;;;;;;;;;;18.40;34.80;;;;;;5088490;28;19924;-57
2023/12/02 11:30:00;;;;;;;;;;;18.40;35.00;;;;;;5093975;28;19924;-58
2023/12/02 11:32:29;;;;;;;;;;;18.40;35.10;;;;;;5090658;28;19927;-56
2023/12/02 11:35:00;;;;;;;;;;;18.50;35.30;;;;;;5112812;28;19927;-56
2023/12/02 11:37:28;;;;;;;;;;;18.50;35.40;;;;;;5114041;28;19935;-57
2023/12/02 11:39:57;;;;;;;;;;;18.50;35.40;;;;;;5095909;28;19923;-53
2023/12/02 11:42:25;;;;;;;;;;;18.50;35.50;;;;;;5105729;28;20661;-57
2023/12/02 11:44:57;;;;;;;;;;;18.50;35.60;;;;;;5095147;28;19923;-57
2023/12/02 11:47:27;;;;;;;;;;;18.60;35.70;;;;;;5095466;28;19924;-60
2023/12/02 11:49:59;;;;;;;;;;;18.60;35.70;;;;;;5095628;28;19928;-55
2023/12/02 11:52:29;;;;;;;;;;;18.60;35.80;;;;;;5113545;28;19932;-53
2023/12/02 11:55:01;;;;;;;;;;;18.60;35.80;;;;;;5085977;28;19931;-55
2023/12/02 11:57:30;;;;;;;;;;;18.60;35.90;;;;;;5095981;28;19927;-54
2023/12/02 12:00:06;;;;;;;;;;;18.70;36.00;;;;;;5095365;28;19928;-55
2023/12/02 12:02:37;;;;;;;;;;;18.70;36.10;;;;;;5095108;28;19939;-55
2023/12/02 12:05:12;;;;;;;;;;;18.70;36.10;;;;;;5105484;28;19927;-54
2023/12/02 12:07:42;;;;;;;;;;;18.70;36.10;;;;;;5108427;28;19923;-55
2023/12/02 12:10:09;;;;;;;;;;;18.70;36.20;;;;;;5094605;28;20023;-55
2023/12/02 12:12:37;;;;;;;;;;;18.70;36.20;;;;;;5091986;28;19931;-56
2023/12/02 12:15:07;;;;;;;;;;;18.80;36.40;;;;;;5112649;28;20384;-55
2023/12/02 12:17:34;;;;;;;;;;;18.80;37.00;;;;;;5112721;28;19923;-55
2023/12/02 12:20:07;;;;;;;;;;;18.80;36.40;;;;;;5094705;28;19924;-56
2023/12/02 12:22:34;;;;;;;;;;;18.80;36.40;;;;;;5095144;28;19977;-56
2023/12/02 12:25:01;;;;;;;;;;;18.80;36.40;;;;;;5094771;28;19934;-54
2023/12/02 12:27:27;;;;;;;;;;;18.80;36.50;;;;;;5108043;27;19932;-55
2023/12/02 12:29:55;;;;;;;;;;;18.80;36.50;;;;;;5097419;28;19928;-54
2023/12/02 12:32:23;;;;;;;;;;;18.80;36.50;;;;;;5092576;28;19934;-57
2023/12/02 12:34:50;;;;;;;;;;;18.80;36.60;;;;;;5092018;28;19924;-55
2023/12/02 12:37:17;;;;;;;;;;;18.80;36.60;;;;;;5093046;28;20331;-58
2023/12/02 12:39:44;;;;;;;;;;;18.80;36.60;;;;;;5093030;28;19931;-57
2023/12/02 12:42:11;;;;;;;;;;;18.80;36.70;;;;;;5093005;28;19970;-52
2023/12/02 12:44:38;;;;;;;;;;;18.80;36.70;;;;;;5095707;28;19935;-56
2023/12/02 12:47:07;;;;;;;;;;;18.80;36.70;;;;;;5107545;28;19931;-56
2023/12/02 12:49:38;;;;;;;;;;;18.80;36.80;;;;;;5095477;28;20127;-56
2023/12/02 12:52:05;;;;;;;;;;;18.80;36.80;;;;;;5095639;28;19931;-56
2023/12/02 12:54:33;;;;;;;;;;;18.90;36.90;;;;;;5101271;27;19927;-57
2023/12/02 12:57:00;;;;;;;;;;;18.90;36.90;;;;;;5090168;28;20308;-57
2023/12/02 12:59:27;;;;;;;;;;;18.90;36.90;;;;;;5104815;28;19924;-57
2023/12/02 13:01:56;;;;;;;;;;;18.90;37.00;;;;;;5093719;28;19924;-56
2023/12/02 13:04:25;;;;;;;;;;;18.90;37.00;;;;;;5084539;28;20005;-54
2023/12/02 13:06:55;;;;;;;;;;;18.90;37.00;;;;;;5094044;28;19924;-55
2023/12/02 13:09:22;;;;;;;;;;;18.90;37.00;;;;;;5093881;28;19924;-58
2023/12/02 13:11:54;;;;;;;;;;;18.90;32.80;;;;;;5093691;28;19928;-57
2023/12/02 13:14:22;;;;;;;;;;;18.70;28.30;;;;;;5111345;28;19924;-57
2023/12/02 13:16:49;;;;;;;;;;;18.40;27.80;;;;;;5090676;28;20388;-57
2023/12/02 13:19:16;;;;;;;;;;;18.10;27.70;;;;;;5091715;28;19930;-54
2023/12/02 13:21:42;;;;;;;;;;;17.80;28.10;;;;;;5094826;28;19923;-56
2023/12/02 13:24:10;;;;;;;;;;;17.60;28.70;;;;;;5109817;28;20391;-56
2023/12/02 13:26:37;;;;;;;;;;;17.40;29.80;;;;;;5092604;28;19928;-55
2023/12/02 13:29:05;;;;;;;;;;;17.30;30.90;;;;;;5093295;28;19928;-55
2023/12/02 13:31:33;;;;;;;;;;;17.30;31.90;;;;;;5092792;28;19928;-56
2023/12/02 13:34:00;;;;;;;;;;;17.30;32.50;;;;;;5095710;28;19924;-56
2023/12/02 13:36:29;;;;;;;;;;;17.40;33.00;;;;;;5095116;28;19934;-58
2023/12/02 13:38:58;;;;;;;;;;;17.50;33.50;;;;;;5092000;28;19931;-54
2023/12/02 13:41:28;;;;;;;;;;;17.60;33.80;;;;;;5096032;28;19923;-58
2023/12/02 13:43:55;;;;;;;;;;;17.70;34.00;;;;;;5094905;28;19924;-57
2023/12/02 13:46:23;;;;;;;;;;;17.70;34.00;;;;;;5096738;28;19930;-55
2023/12/02 13:48:52;;;;;;;;;;;17.80;34.20;;;;;;5112623;28;19940;-57
2023/12/02 13:51:22;;;;;;;;;;;17.80;34.20;;;;;;5098308;28;19938;-57
2023/12/02 13:53:51;;;;;;;;;;;17.90;34.40;;;;;;5097406;28;20242;-54
2023/12/02 13:56:20;;;;;;;;;;;18.00;34.60;;;;;;5111596;28;19924;-57
2023/12/02 13:58:52;;;;;;;;;;;18.00;34.60;;;;;;5113027;28;19930;-57
2023/12/02 14:01:19;;;;;;;;;;;18.10;34.80;;;;;;5094137;27;19950;-55
2023/12/02 14:03:59;;;;;;;;;;;18.10;34.90;;;;;;5115846;27;20015;-59
2023/12/02 14:06:28;;;;;;;;;;;18.20;35.00;;;;;;5093770;28;20035;-54
2023/12/02 14:08:56;;;;;;;;;;;18.20;35.00;;;;;;5092966;28;19931;-55
2023/12/02 14:11:27;;;;;;;;;;;18.30;35.10;;;;;;5096146;27;19976;-58
2023/12/02 14:13:58;;;;;;;;;;;18.30;35.20;;;;;;5081054;28;20380;-58
2023/12/02 14:16:28;;;;;;;;;;;18.30;35.20;;;;;;5099330;28;19923;-58
2023/12/02 14:19:02;;;;;;;;;;;18.40;35.30;;;;;;5100571;28;20392;-56